createdAt,value
2023-01-07T00:01:31.042Z,6.75
2023-01-07T00:04:00.474Z,4.03
2023-01-07T00:06:31.048Z,5.97
2023-01-07T00:08:58.829Z,5.35
2023-01-07T00:11:45.533Z,5.97
2023-01-07T00:14:14.352Z,4.78
2023-01-07T00:16:42.595Z,2.85
2023-01-07T00:19:14.441Z,8.63
2023-01-07T00:21:43.060Z,3.90
2023-01-07T00:24:11.833Z,5.63
2023-01-07T00:26:40.349Z,5.72
2023-01-07T00:29:08.786Z,6.35
2023-01-07T00:31:38.936Z,5.00
2023-01-07T00:34:07.288Z,6.88
2023-01-07T00:36:39.665Z,7.30
2023-01-07T00:39:16.727Z,8.57
2023-01-07T00:42:03.844Z,7.57
2023-01-07T00:44:32.250Z,4.57
2023-01-07T00:47:00.476Z,7.20
2023-01-07T00:49:28.386Z,5.43
2023-01-07T00:51:56.070Z,4.75
2023-01-07T00:54:24.508Z,6.30
2023-01-07T00:56:52.200Z,7.18
2023-01-07T01:01:48.216Z,7.03
2023-01-07T01:06:43.525Z,4.78
2023-01-07T01:09:13.558Z,4.55
2023-01-07T01:11:42.024Z,9.23
2023-01-07T01:14:11.244Z,7.53
2023-01-07T01:16:39.199Z,5.47
2023-01-07T01:19:07.386Z,5.00
2023-01-07T01:21:34.984Z,6.55
2023-01-07T01:24:02.551Z,7.90
2023-01-07T01:26:30.143Z,5.75
2023-01-07T01:28:57.748Z,5.70
2023-01-07T01:31:26.038Z,7.50
2023-01-07T01:33:55.586Z,4.13
2023-01-07T01:36:24.561Z,7.10
2023-01-07T01:38:54.224Z,8.07
2023-01-07T01:43:52.567Z,6.90
2023-01-07T01:49:02.760Z,3.67
2023-01-07T01:51:37.210Z,3.97
2023-01-07T01:54:09.796Z,7.80
2023-01-07T01:56:42.535Z,3.60
2023-01-07T01:59:14.605Z,7.20
2023-01-07T02:01:42.473Z,3.22
2023-01-07T02:04:17.372Z,6.85
2023-01-07T02:07:04.041Z,5.95
2023-01-07T02:09:32.980Z,5.90
2023-01-07T02:12:00.934Z,4.38
2023-01-07T02:14:34.512Z,5.53
2023-01-07T02:17:11.184Z,5.80
2023-01-07T02:20:23.437Z,5.68
2023-01-07T02:23:27.124Z,3.78
2023-01-07T02:26:36.225Z,4.57
2023-01-07T02:29:28.371Z,5.90
2023-01-07T02:32:44.539Z,5.78
2023-01-07T02:35:27.718Z,8.10
2023-01-07T02:38:24.536Z,7.47
2023-01-07T02:41:05.689Z,5.55
2023-01-07T02:44:03.651Z,6.90
2023-01-07T02:46:39.083Z,4.22
2023-01-07T02:49:14.419Z,6.30
2023-01-07T02:51:42.953Z,5.22
2023-01-07T02:54:25.143Z,5.22
2023-01-07T02:57:15.993Z,8.77
2023-01-07T03:00:04.168Z,8.27
2023-01-07T03:02:35.505Z,5.95
2023-01-07T03:05:27.965Z,4.78
2023-01-07T03:08:22.595Z,5.75
2023-01-07T03:11:09.253Z,6.78
2023-01-07T03:14:03.581Z,5.28
2023-01-07T03:16:39.061Z,5.93
2023-01-07T03:21:47.910Z,6.80
2023-01-07T03:24:16.899Z,11.48
2023-01-07T03:26:48.758Z,8.05
2023-01-07T03:29:18.753Z,3.80
2023-01-07T03:31:57.070Z,6.25
2023-01-07T03:34:28.878Z,4.28
2023-01-07T03:37:07.337Z,5.85
2023-01-07T03:39:38.296Z,7.28
2023-01-07T03:42:28.269Z,6.50
2023-01-07T03:44:56.782Z,5.57
2023-01-07T03:47:28.872Z,5.43
2023-01-07T03:49:59.400Z,5.65
2023-01-07T03:52:27.211Z,3.72
2023-01-07T03:54:55.156Z,6.38
2023-01-07T03:57:23.337Z,3.53
2023-01-07T03:59:50.912Z,4.15
2023-01-07T04:02:19.314Z,2.72
2023-01-07T04:04:47.096Z,3.75
2023-01-07T04:07:15.756Z,5.88
2023-01-07T04:09:44.126Z,2.78
2023-01-07T04:12:12.060Z,5.45
2023-01-07T04:14:40.504Z,4.55
2023-01-07T04:17:08.445Z,3.35
2023-01-07T04:19:38.618Z,7.22
2023-01-07T04:22:10.163Z,2.28
2023-01-07T04:24:38.108Z,3.50
2023-01-07T04:29:33.616Z,6.00
2023-01-07T04:32:01.987Z,4.03
2023-01-07T04:34:29.639Z,5.35
2023-01-07T04:36:58.051Z,5.22
2023-01-07T04:39:25.617Z,4.28
2023-01-07T04:41:54.320Z,5.53
2023-01-07T04:44:22.265Z,3.47
2023-01-07T04:49:20.258Z,6.03
2023-01-07T04:51:48.537Z,2.83
2023-01-07T04:54:16.852Z,6.43
2023-01-07T04:56:44.552Z,2.95
2023-01-07T04:59:13.267Z,7.43
2023-01-07T05:04:09.392Z,6.78
2023-01-07T05:06:37.809Z,6.93
2023-01-07T05:09:06.729Z,5.45
2023-01-07T05:11:34.380Z,5.03
2023-01-07T05:14:03.429Z,6.07
2023-01-07T05:16:33.985Z,8.00
2023-01-07T05:19:06.029Z,5.18
2023-01-07T05:21:38.152Z,5.13
2023-01-07T05:24:06.167Z,5.78
2023-01-07T05:26:33.786Z,4.97
2023-01-07T05:31:29.471Z,6.47
2023-01-07T05:33:57.115Z,4.85
2023-01-07T05:36:24.999Z,3.58
2023-01-07T05:38:54.514Z,6.07
2023-01-07T05:41:22.292Z,6.25
2023-01-07T05:43:49.955Z,4.22
2023-01-07T05:46:17.774Z,3.45
2023-01-07T05:48:45.554Z,5.53
2023-01-07T05:51:13.104Z,5.07
2023-01-07T05:53:41.131Z,3.45
2023-01-07T05:58:36.432Z,4.63
2023-01-07T06:01:04.065Z,4.55
2023-01-07T06:03:31.738Z,6.15
2023-01-07T06:05:59.430Z,2.83
2023-01-07T06:08:27.264Z,3.78
2023-01-07T06:10:55.022Z,5.78
2023-01-07T06:13:22.625Z,3.83
2023-01-07T06:15:50.374Z,3.17
2023-01-07T06:18:18.015Z,3.08
2023-01-07T06:20:45.600Z,2.35
2023-01-07T06:23:13.373Z,3.60
2023-01-07T06:25:40.962Z,2.88
2023-01-07T06:28:08.491Z,2.92
2023-01-07T06:30:36.460Z,7.05
2023-01-07T06:33:05.569Z,3.83
2023-01-07T06:35:33.577Z,6.55
2023-01-07T06:38:03.736Z,3.50
2023-01-07T06:40:31.968Z,4.50
2023-01-07T06:45:27.443Z,3.60
2023-01-07T06:50:25.541Z,3.97
2023-01-07T06:55:20.640Z,3.38
2023-01-07T06:57:48.307Z,3.22
2023-01-07T07:00:16.083Z,2.28
2023-01-07T07:02:43.915Z,3.22
2023-01-07T07:05:11.867Z,5.32
2023-01-07T07:07:39.593Z,10.05
2023-01-07T07:10:08.515Z,3.78
2023-01-07T07:12:37.809Z,4.15
2023-01-07T07:15:07.361Z,3.95
2023-01-07T07:17:35.132Z,3.72
2023-01-07T07:20:02.834Z,5.85
2023-01-07T07:22:30.340Z,3.50
2023-01-07T07:24:58.012Z,4.53
2023-01-07T07:27:25.692Z,6.13
2023-01-07T07:29:53.244Z,4.32
2023-01-07T07:32:20.927Z,5.40
2023-01-07T07:34:48.542Z,5.38
2023-01-07T07:37:16.214Z,5.20
2023-01-07T07:39:43.716Z,5.63
2023-01-07T07:42:11.724Z,5.38
2023-01-07T07:44:39.272Z,7.25
2023-01-07T07:47:06.765Z,5.75
2023-01-07T07:49:34.750Z,6.55
2023-01-07T07:52:02.487Z,3.63
2023-01-07T07:54:30.039Z,6.50
2023-01-07T07:56:58.434Z,5.70
2023-01-07T07:59:26.231Z,3.20
2023-01-07T08:01:54.349Z,5.40
2023-01-07T08:06:49.444Z,4.95
2023-01-07T08:09:17.178Z,5.85
2023-01-07T08:11:44.967Z,4.57
2023-01-07T08:14:12.641Z,4.70
2023-01-07T08:16:40.216Z,4.38
2023-01-07T08:19:08.086Z,5.18
2023-01-07T08:21:35.635Z,4.45
2023-01-07T08:24:03.788Z,3.30
2023-01-07T08:26:31.551Z,5.07
2023-01-07T08:28:59.277Z,3.58
2023-01-07T08:31:27.223Z,3.53
2023-01-07T08:33:55.032Z,5.57
2023-01-07T08:36:23.787Z,3.42
2023-01-07T08:38:53.315Z,5.38
2023-01-07T08:41:23.249Z,3.25
2023-01-07T08:43:51.477Z,4.72
2023-01-07T08:48:46.670Z,3.35
2023-01-07T08:51:14.649Z,4.68
2023-01-07T08:53:42.493Z,4.47
2023-01-07T08:56:10.095Z,5.40
2023-01-07T08:58:38.588Z,1.95
2023-01-07T09:01:07.382Z,3.53
2023-01-07T09:03:35.413Z,4.38
2023-01-07T09:08:30.984Z,2.45
2023-01-07T09:10:58.607Z,4.95
2023-01-07T09:13:26.230Z,7.30
2023-01-07T09:15:54.176Z,3.35
2023-01-07T09:18:21.710Z,7.18
2023-01-07T09:20:49.923Z,3.60
2023-01-07T09:23:19.026Z,3.95
2023-01-07T09:25:46.734Z,3.10
2023-01-07T09:28:14.407Z,6.75
2023-01-07T09:30:42.075Z,8.73
2023-01-07T09:33:09.757Z,4.15
2023-01-07T09:35:37.440Z,6.43
2023-01-07T09:38:05.327Z,2.85
2023-01-07T09:40:37.896Z,7.10
2023-01-07T09:43:10.087Z,3.10
2023-01-07T09:45:43.051Z,4.38
2023-01-07T09:48:36.146Z,4.95
2023-01-07T09:51:07.307Z,4.95
2023-01-07T09:53:47.113Z,6.13
2023-01-07T09:56:27.890Z,6.22
2023-01-07T09:58:57.007Z,3.92
2023-01-07T10:01:39.939Z,8.13
2023-01-07T10:04:13.623Z,7.45
2023-01-07T10:06:53.458Z,6.20
2023-01-07T10:09:43.227Z,5.78
2023-01-07T10:12:36.545Z,2.80
2023-01-07T10:15:35.535Z,2.10
2023-01-07T10:18:38.488Z,2.50
2023-01-07T10:21:52.358Z,2.83
2023-01-07T10:24:29.309Z,3.97
2023-01-07T10:27:05.625Z,9.50
2023-01-07T10:29:43.006Z,9.13
2023-01-07T10:32:17.568Z,6.15
2023-01-07T10:34:55.594Z,6.80
2023-01-07T10:40:17.550Z,8.63
2023-01-07T10:43:11.626Z,10.48
2023-01-07T10:45:58.110Z,5.05
2023-01-07T10:48:34.672Z,5.53
2023-01-07T10:51:39.819Z,12.70
2023-01-07T10:54:34.364Z,15.77
2023-01-07T10:57:10.397Z,14.40
2023-01-07T10:59:38.238Z,9.70
2023-01-07T11:02:16.794Z,3.97
2023-01-07T11:04:45.919Z,4.90
2023-01-07T11:07:28.291Z,5.20
2023-01-07T11:09:58.895Z,3.25
2023-01-07T11:12:52.892Z,3.03
2023-01-07T11:15:35.628Z,4.15
2023-01-07T11:18:16.819Z,1.85
2023-01-07T11:20:52.158Z,3.17
2023-01-07T11:23:27.790Z,3.90
2023-01-07T11:26:05.126Z,2.00
2023-01-07T11:28:34.225Z,1.95
2023-01-07T11:31:02.633Z,3.08
2023-01-07T11:34:01.786Z,2.17
2023-01-07T11:36:42.621Z,2.55
2023-01-07T11:39:31.769Z,3.10
2023-01-07T11:42:00.114Z,0.75
2023-01-07T11:44:27.746Z,0.40
2023-01-07T11:46:55.830Z,2.65
2023-01-07T11:49:29.981Z,3.00
2023-01-07T11:51:58.644Z,3.13
2023-01-07T11:54:29.158Z,4.80
2023-01-07T11:57:25.576Z,1.63
2023-01-07T12:00:17.678Z,4.28
2023-01-07T12:02:45.951Z,1.35
2023-01-07T12:05:24.824Z,4.18
2023-01-07T12:07:52.919Z,1.90
2023-01-07T12:13:28.338Z,1.27
2023-01-07T12:16:02.757Z,0.98
2023-01-07T12:18:47.725Z,4.03
2023-01-07T12:21:34.158Z,2.78
2023-01-07T12:24:19.844Z,4.50
2023-01-07T12:27:11.869Z,2.63
2023-01-07T12:30:20.434Z,3.67
2023-01-07T12:33:00.235Z,5.80
2023-01-07T12:35:39.396Z,3.53
2023-01-07T12:38:14.182Z,3.70
2023-01-07T12:40:51.264Z,2.50
2023-01-07T12:43:37.624Z,5.90
2023-01-07T12:46:15.155Z,4.90
2023-01-07T12:49:02.389Z,4.25
2023-01-07T12:51:43.601Z,5.00
2023-01-07T12:54:18.813Z,7.95
2023-01-07T12:57:01.454Z,1.95
2023-01-07T12:59:45.835Z,2.58
2023-01-07T13:02:29.060Z,2.40
2023-01-07T13:05:15.707Z,1.85
2023-01-07T13:08:04.424Z,2.78
2023-01-07T13:10:45.079Z,5.55
2023-01-07T13:13:28.064Z,2.45
2023-01-07T13:15:56.872Z,2.33
2023-01-07T13:18:24.597Z,4.30
2023-01-07T13:21:13.166Z,2.53
2023-01-07T13:23:59.663Z,0.57
2023-01-07T13:26:39.606Z,2.97
2023-01-07T13:29:21.975Z,1.95
2023-01-07T13:32:14.669Z,3.45
2023-01-07T13:35:19.501Z,4.43
2023-01-07T13:38:15.121Z,2.17
2023-01-07T13:40:54.843Z,1.92
2023-01-07T13:43:42.209Z,1.80
2023-01-07T13:46:18.837Z,0.90
2023-01-07T13:48:51.518Z,2.60
2023-01-07T13:51:35.380Z,3.63
2023-01-07T13:54:03.599Z,2.95
2023-01-07T13:59:01.161Z,6.07
2023-01-07T14:04:03.893Z,2.95
2023-01-07T14:06:38.777Z,3.47
2023-01-07T14:09:13.541Z,4.70
2023-01-07T14:12:13.348Z,7.18
2023-01-07T14:15:08.128Z,4.53
2023-01-07T14:17:50.092Z,4.65
2023-01-07T14:20:39.654Z,5.15
2023-01-07T14:23:40.456Z,3.92
2023-01-07T14:26:31.220Z,5.30
2023-01-07T14:29:34.893Z,7.50
2023-01-07T14:32:17.887Z,4.55
2023-01-07T14:35:17.071Z,4.45
2023-01-07T14:37:47.339Z,2.40
2023-01-07T14:40:26.926Z,3.50
2023-01-07T14:42:58.286Z,6.05
2023-01-07T14:45:40.758Z,3.65
2023-01-07T14:48:08.553Z,2.90
2023-01-07T14:51:10.615Z,2.50
2023-01-07T14:54:04.086Z,3.13
2023-01-07T14:57:09.859Z,2.97
2023-01-07T14:59:40.167Z,2.90
2023-01-07T15:02:27.869Z,4.63
2023-01-07T15:05:23.227Z,3.17
2023-01-07T15:08:16.090Z,3.90
2023-01-07T15:11:03.808Z,3.45
2023-01-07T15:13:51.225Z,3.83
2023-01-07T15:16:21.766Z,2.88
2023-01-07T15:18:52.639Z,2.92
2023-01-07T15:21:30.181Z,2.83
2023-01-07T15:24:37.597Z,5.57
2023-01-07T15:29:48.587Z,7.05
2023-01-07T15:32:32.355Z,3.60
2023-01-07T15:35:00.909Z,4.47
2023-01-07T15:37:28.772Z,3.47
2023-01-07T15:39:57.990Z,4.43
2023-01-07T15:42:29.213Z,4.45
2023-01-07T15:44:59.193Z,2.25
2023-01-07T15:47:41.236Z,6.45
2023-01-07T15:50:33.997Z,2.80
2023-01-07T15:53:12.519Z,5.32
2023-01-07T15:55:51.833Z,4.38
2023-01-07T15:58:22.615Z,5.82
2023-01-07T16:00:57.450Z,6.65
2023-01-07T16:03:25.373Z,5.85
2023-01-07T16:05:54.425Z,2.97
2023-01-07T16:08:34.140Z,3.55
2023-01-07T16:11:25.425Z,6.47
2023-01-07T16:14:03.989Z,6.95
2023-01-07T16:16:32.562Z,4.13
2023-01-07T16:19:02.467Z,2.85
2023-01-07T16:21:37.680Z,2.90
2023-01-07T16:24:05.950Z,4.15
2023-01-07T16:26:45.078Z,3.97
2023-01-07T16:29:26.647Z,3.40
2023-01-07T16:31:55.389Z,6.32
2023-01-07T16:34:26.105Z,5.00
2023-01-07T16:37:00.864Z,1.67
2023-01-07T16:39:39.671Z,3.58
2023-01-07T16:42:20.144Z,3.75
2023-01-07T16:44:49.609Z,4.63
2023-01-07T16:47:31.951Z,6.53
2023-01-07T16:50:14.784Z,6.07
2023-01-07T16:52:54.713Z,4.93
2023-01-07T16:56:03.593Z,4.18
2023-01-07T16:58:47.664Z,3.33
2023-01-07T17:01:20.212Z,4.40
2023-01-07T17:03:53.532Z,2.80
2023-01-07T17:06:27.353Z,5.20
2023-01-07T17:08:56.672Z,3.08
2023-01-07T17:11:35.755Z,1.77
2023-01-07T17:14:04.067Z,4.65
2023-01-07T17:16:35.779Z,2.20
2023-01-07T17:19:25.739Z,6.15
2023-01-07T17:21:54.051Z,2.08
2023-01-07T17:24:27.653Z,2.03
2023-01-07T17:27:01.717Z,1.17
2023-01-07T17:29:36.462Z,2.85
2023-01-07T17:32:04.799Z,3.38
2023-01-07T17:39:27.611Z,4.15
2023-01-07T17:42:14.092Z,2.55
2023-01-07T17:44:41.676Z,4.15
2023-01-07T17:47:11.543Z,3.80
2023-01-07T17:49:39.662Z,0.65
2023-01-07T17:52:09.473Z,1.88
2023-01-07T17:54:38.175Z,1.92
2023-01-07T17:57:05.764Z,2.15
2023-01-07T17:59:33.356Z,2.92
2023-01-07T18:02:01.716Z,3.40
2023-01-07T18:04:29.254Z,1.95
2023-01-07T18:06:56.916Z,3.70
2023-01-07T18:09:25.011Z,1.38
2023-01-07T18:12:11.452Z,3.20
2023-01-07T18:14:39.031Z,4.30
2023-01-07T18:17:07.480Z,1.70
2023-01-07T18:19:35.143Z,2.75
2023-01-07T18:22:02.810Z,4.18
2023-01-07T18:24:30.611Z,1.85
2023-01-07T18:26:58.269Z,2.75
2023-01-07T18:29:25.857Z,2.97
2023-01-07T18:31:53.705Z,3.85
2023-01-07T18:34:21.521Z,1.48
2023-01-07T18:36:49.216Z,0.98
2023-01-07T18:39:20.605Z,3.08
2023-01-07T18:41:51.599Z,4.30
2023-01-07T18:44:20.779Z,1.60
2023-01-07T18:46:48.335Z,2.28
2023-01-07T18:49:15.945Z,3.40
2023-01-07T18:51:46.451Z,3.22
2023-01-07T18:54:15.029Z,1.25
2023-01-07T18:56:45.912Z,5.65
2023-01-07T18:59:14.321Z,2.83
2023-01-07T19:01:42.050Z,1.98
2023-01-07T19:04:09.952Z,2.60
2023-01-07T19:06:37.584Z,2.30
2023-01-07T19:09:05.371Z,4.45
2023-01-07T19:11:32.937Z,4.65
2023-01-07T19:14:00.570Z,4.18
2023-01-07T19:16:28.630Z,1.73
2023-01-07T19:18:56.170Z,3.53
2023-01-07T19:21:26.581Z,4.38
2023-01-07T19:23:54.503Z,3.78
2023-01-07T19:26:22.276Z,4.38
2023-01-07T19:28:49.840Z,5.65
2023-01-07T19:31:17.500Z,5.35
2023-01-07T19:33:45.094Z,5.15
2023-01-07T19:36:15.840Z,7.53
2023-01-07T19:38:47.573Z,6.40
2023-01-07T19:41:18.239Z,5.47
2023-01-07T19:43:48.191Z,6.45
2023-01-07T19:46:16.256Z,9.43
2023-01-07T19:51:14.131Z,4.60
2023-01-07T19:53:42.304Z,7.63
2023-01-07T19:56:11.747Z,5.78
2023-01-07T19:58:40.496Z,10.57
2023-01-07T20:01:11.521Z,9.52
2023-01-07T20:03:39.782Z,6.05
2023-01-07T20:06:13.129Z,8.73
2023-01-07T20:08:41.381Z,3.30
2023-01-07T20:11:11.197Z,5.85
2023-01-07T20:13:40.100Z,8.40
2023-01-07T20:16:14.725Z,3.25
2023-01-07T20:18:47.753Z,7.80
2023-01-07T20:21:17.737Z,6.28
2023-01-07T20:23:45.385Z,4.93
2023-01-07T20:26:16.607Z,7.18
2023-01-07T20:28:44.298Z,6.28
2023-01-07T20:31:14.650Z,6.60
2023-01-07T20:33:43.309Z,11.98
2023-01-07T20:36:13.831Z,7.57
2023-01-07T20:38:42.851Z,7.45
2023-01-07T20:41:16.495Z,12.70
2023-01-07T20:43:44.736Z,9.98
2023-01-07T20:46:12.434Z,7.25
2023-01-07T20:48:40.193Z,8.35
2023-01-07T20:51:08.777Z,6.35
2023-01-07T20:53:37.752Z,4.45
2023-01-07T20:56:06.060Z,6.05
2023-01-07T20:58:35.696Z,7.68
2023-01-07T21:01:05.532Z,6.38
2023-01-07T21:03:34.320Z,7.10
2023-01-07T21:06:02.568Z,5.57
2023-01-07T21:08:30.530Z,9.63
2023-01-07T21:10:58.510Z,7.63
2023-01-07T21:13:26.139Z,5.90
2023-01-07T21:15:53.934Z,6.30
2023-01-07T21:18:21.593Z,6.82
2023-01-07T21:20:49.653Z,7.68
2023-01-07T21:23:17.146Z,9.35
2023-01-07T21:25:48.668Z,5.82
2023-01-07T21:28:16.353Z,4.80
2023-01-07T21:30:44.312Z,10.23
2023-01-07T21:33:12.354Z,7.53
2023-01-07T21:35:40.706Z,8.32
2023-01-07T21:38:08.464Z,9.57
2023-01-07T21:40:38.334Z,10.77
2023-01-07T21:43:06.139Z,7.25
2023-01-07T21:45:33.766Z,7.18
2023-01-07T21:48:01.524Z,9.68
2023-01-07T21:50:29.094Z,10.32
2023-01-07T21:52:56.853Z,6.88
2023-01-07T21:55:24.586Z,6.03
2023-01-07T21:57:52.118Z,8.07
2023-01-07T22:00:19.719Z,7.55
2023-01-07T22:02:47.320Z,8.88
2023-01-07T22:05:15.292Z,8.82
2023-01-07T22:07:42.968Z,7.43
2023-01-07T22:10:10.704Z,7.90
2023-01-07T22:12:38.568Z,10.10
2023-01-07T22:15:06.635Z,11.10
2023-01-07T22:17:34.786Z,9.10
2023-01-07T22:20:02.244Z,10.90
2023-01-07T22:22:29.938Z,8.45
2023-01-07T22:24:57.657Z,10.05
2023-01-07T22:27:25.255Z,15.25
2023-01-07T22:29:55.051Z,11.02
2023-01-07T22:32:22.651Z,11.48
2023-01-07T22:34:50.199Z,13.80
2023-01-07T22:37:20.817Z,8.43
2023-01-07T22:39:55.640Z,12.55
2023-01-07T22:42:29.108Z,9.02
2023-01-07T22:45:02.509Z,9.23
2023-01-07T22:47:35.109Z,11.77
2023-01-07T22:50:05.675Z,8.60
2023-01-07T22:52:33.719Z,9.77
2023-01-07T22:57:30.007Z,13.98
2023-01-07T22:59:59.125Z,7.63
2023-01-07T23:02:27.270Z,9.20
2023-01-07T23:04:54.855Z,9.75
2023-01-07T23:07:22.429Z,15.10
2023-01-07T23:09:51.587Z,9.63
2023-01-07T23:12:19.443Z,9.55
2023-01-07T23:14:47.001Z,11.68
2023-01-07T23:17:14.644Z,12.35
2023-01-07T23:19:42.169Z,8.05
2023-01-07T23:22:09.900Z,9.30
2023-01-07T23:24:37.557Z,7.60
2023-01-07T23:27:05.392Z,10.43
2023-01-07T23:29:33.259Z,9.43
2023-01-07T23:32:01.101Z,7.63
2023-01-07T23:34:29.157Z,9.63
2023-01-07T23:36:56.969Z,12.55
2023-01-07T23:39:24.507Z,7.63
2023-01-07T23:41:52.408Z,9.98
2023-01-07T23:44:19.871Z,6.88
2023-01-07T23:46:47.952Z,9.98
2023-01-07T23:49:15.390Z,14.75
2023-01-07T23:51:43.219Z,9.07
2023-01-07T23:54:12.806Z,13.18
2023-01-07T23:56:40.579Z,9.35
2023-01-07T23:59:10.093Z,9.88
